Time;durP1;ratioP1;P1;durP2;ratioP2;P2;SDS_P1;SDS_P2;PMS_P1;PMS_P2;Temp;Humidity;BMP_temperature;BMP_pressure;BME280_temperature;BME280_humidity;BME280_pressure;Samples;Min_cycle;Max_cycle;Signal;HPM_P1;HPM_P2
2023/05/27 00:01:19;;;;;;;7.78;3.78;;;9.00;99.90;;;;;;5091582;28;20123;-65
2023/05/27 00:03:46;;;;;;;12.65;4.30;;;9.00;99.90;;;;;;5091369;28;20052;-65
2023/05/27 00:06:12;;;;;;;10.52;3.42;;;9.00;99.90;;;;;;5090941;28;20040;-64
2023/05/27 00:08:38;;;;;;;13.15;3.95;;;9.00;99.90;;;;;;5091284;28;20101;-63
2023/05/27 00:11:05;;;;;;;12.60;4.05;;;9.00;99.90;;;;;;5091338;28;20055;-64
2023/05/27 00:13:31;;;;;;;10.95;4.72;;;8.90;99.90;;;;;;5091538;28;20105;-64
2023/05/27 00:15:57;;;;;;;11.68;4.28;;;8.90;99.90;;;;;;5091202;28;20060;-64
2023/05/27 00:18:24;;;;;;;15.07;4.90;;;8.80;99.90;;;;;;5074080;28;20458;-64
2023/05/27 00:20:50;;;;;;;13.23;3.90;;;8.80;99.90;;;;;;5091014;28;20063;-64
2023/05/27 00:23:16;;;;;;;10.55;3.70;;;8.70;99.90;;;;;;5091072;28;20048;-64
2023/05/27 00:25:43;;;;;;;11.48;3.90;;;8.70;99.90;;;;;;5074005;28;20044;-64
2023/05/27 00:28:10;;;;;;;11.35;3.63;;;8.80;99.90;;;;;;5090028;28;20475;-65
2023/05/27 00:30:36;;;;;;;7.70;4.18;;;8.80;99.90;;;;;;5090659;28;20058;-64
2023/05/27 00:33:02;;;;;;;11.45;4.00;;;8.70;99.90;;;;;;5091170;28;20052;-64
2023/05/27 00:35:29;;;;;;;11.68;4.38;;;8.60;99.90;;;;;;5090818;28;20044;-63
2023/05/27 00:37:55;;;;;;;13.93;4.45;;;8.60;99.90;;;;;;5090489;28;20357;-64
2023/05/27 00:40:24;;;;;;;12.23;4.20;;;8.60;99.90;;;;;;5074075;28;20054;-64
2023/05/27 00:42:50;;;;;;;14.82;5.15;;;8.50;99.90;;;;;;5074190;28;20051;-63
2023/05/27 00:45:16;;;;;;;12.25;5.25;;;8.50;99.90;;;;;;5090856;28;20464;-64
2023/05/27 00:47:43;;;;;;;13.00;4.25;;;8.40;99.90;;;;;;5090298;28;20062;-64
2023/05/27 00:50:10;;;;;;;13.23;4.45;;;8.40;99.90;;;;;;5090744;28;20047;-63
2023/05/27 00:52:36;;;;;;;13.25;4.63;;;8.30;99.90;;;;;;5090946;28;20063;-65
2023/05/27 00:55:03;;;;;;;9.27;3.92;;;8.40;99.90;;;;;;5090797;28;20044;-64
2023/05/27 00:57:29;;;;;;;11.45;4.07;;;8.30;99.90;;;;;;5090392;28;20081;-63
2023/05/27 00:59:55;;;;;;;12.13;4.38;;;8.30;99.90;;;;;;5090649;28;20158;-64
2023/05/27 01:02:22;;;;;;;11.02;4.30;;;8.20;99.90;;;;;;5090887;28;20109;-64
2023/05/27 01:04:48;;;;;;;13.57;4.78;;;8.20;99.90;;;;;;5090396;28;20059;-64
2023/05/27 01:07:22;;;;;;;10.25;4.43;;;8.20;99.90;;;;;;5090623;28;20114;-64
2023/05/27 01:09:55;;;;;;;9.63;4.50;;;8.10;99.90;;;;;;5090668;28;20105;-64
2023/05/27 01:12:37;;;;;;;14.85;4.30;;;8.20;99.90;;;;;;5090945;28;20093;-63
2023/05/27 01:15:05;;;;;;;10.40;4.43;;;8.20;99.90;;;;;;5090499;28;20062;-64
2023/05/27 01:17:37;;;;;;;11.05;4.55;;;8.20;99.90;;;;;;5090497;28;20055;-63
2023/05/27 01:20:05;;;;;;;15.93;4.70;;;8.20;99.90;;;;;;5090573;28;20055;-66
2023/05/27 01:22:32;;;;;;;10.15;4.43;;;8.20;99.90;;;;;;5090912;28;20048;-63
2023/05/27 01:24:58;;;;;;;11.13;4.63;;;8.20;99.90;;;;;;5090620;28;20044;-65
2023/05/27 01:27:27;;;;;;;12.77;4.78;;;8.10;99.90;;;;;;5089935;28;20044;-64
2023/05/27 01:29:53;;;;;;;10.88;4.95;;;8.00;99.90;;;;;;5090164;28;20139;-64
2023/05/27 01:32:45;;;;;;;13.70;6.00;;;8.10;99.90;;;;;;5090693;28;20044;-63
2023/05/27 01:35:20;;;;;;;15.50;5.85;;;8.00;99.90;;;;;;5090310;28;20040;-64
2023/05/27 01:37:48;;;;;;;12.68;6.00;;;8.00;99.90;;;;;;5089589;28;20051;-64
2023/05/27 01:40:14;;;;;;;12.68;6.07;;;8.00;99.90;;;;;;5091451;28;20051;-63
2023/05/27 01:42:43;;;;;;;12.80;6.30;;;8.10;99.90;;;;;;5094338;28;20040;-63
2023/05/27 01:45:10;;;;;;;12.55;6.40;;;8.00;99.90;;;;;;5093771;28;20043;-64
2023/05/27 01:47:37;;;;;;;10.93;5.43;;;8.00;99.90;;;;;;5093575;28;20425;-64
2023/05/27 01:50:04;;;;;;;14.02;5.38;;;8.10;99.90;;;;;;5093921;28;20043;-65
2023/05/27 01:52:30;;;;;;;12.20;5.82;;;8.00;99.90;;;;;;5093792;28;20047;-63
2023/05/27 01:54:56;;;;;;;12.48;5.93;;;8.00;99.90;;;;;;5095129;28;20105;-63
2023/05/27 01:57:24;;;;;;;12.25;5.18;;;8.00;99.90;;;;;;5093383;28;20073;-63
2023/05/27 01:59:51;;;;;;;12.27;4.75;;;8.10;99.90;;;;;;5094038;28;20048;-64
2023/05/27 02:02:17;;;;;;;15.20;4.90;;;8.00;99.90;;;;;;5076825;28;20052;-62
2023/05/27 02:04:43;;;;;;;14.93;6.22;;;8.00;99.90;;;;;;5093296;28;20048;-64
2023/05/27 02:07:10;;;;;;;15.23;4.82;;;8.00;99.90;;;;;;5093373;28;20084;-64
2023/05/27 02:09:36;;;;;;;17.58;4.80;;;8.00;99.90;;;;;;5093414;28;20124;-66
2023/05/27 02:12:03;;;;;;;12.57;5.18;;;7.90;99.90;;;;;;5093636;28;20436;-62
2023/05/27 02:14:30;;;;;;;11.55;4.85;;;7.90;99.90;;;;;;5093852;28;20418;-65
2023/05/27 02:16:57;;;;;;;10.80;4.78;;;7.90;99.90;;;;;;5076426;28;20131;-63
2023/05/27 02:19:25;;;;;;;13.82;4.82;;;7.90;99.90;;;;;;5076001;28;20052;-64
2023/05/27 02:21:51;;;;;;;13.10;5.28;;;7.90;99.90;;;;;;5093363;28;20051;-65
2023/05/27 02:24:17;;;;;;;13.18;5.47;;;7.80;99.90;;;;;;5093404;28;20048;-65
2023/05/27 02:26:44;;;;;;;16.08;5.75;;;7.80;99.90;;;;;;5076142;28;20036;-64
2023/05/27 02:29:10;;;;;;;11.32;4.60;;;7.80;99.90;;;;;;5092948;28;20056;-62
2023/05/27 02:31:36;;;;;;;10.23;4.00;;;7.80;99.90;;;;;;5094233;28;20048;-64
2023/05/27 02:34:02;;;;;;;12.98;4.90;;;7.70;99.90;;;;;;5094583;28;20055;-64
2023/05/27 02:36:29;;;;;;;11.40;4.85;;;7.70;99.90;;;;;;5072461;28;20472;-64
2023/05/27 02:38:55;;;;;;;16.17;5.43;;;7.70;99.90;;;;;;5072784;28;20397;-63
2023/05/27 02:41:21;;;;;;;15.40;5.97;;;7.70;99.90;;;;;;5072871;28;20051;-64
2023/05/27 02:43:48;;;;;;;15.07;6.13;;;7.70;99.90;;;;;;5072830;28;20045;-65
2023/05/27 02:46:14;;;;;;;17.50;6.85;;;7.60;99.90;;;;;;5077755;28;20101;-64
2023/05/27 02:48:40;;;;;;;10.57;6.47;;;7.60;99.90;;;;;;5092859;28;20051;-63
2023/05/27 02:51:07;;;;;;;15.35;6.10;;;7.50;99.90;;;;;;5075827;28;20098;-65
2023/05/27 02:53:33;;;;;;;13.88;6.38;;;7.60;99.90;;;;;;5092611;28;20400;-64
2023/05/27 02:55:59;;;;;;;15.93;6.22;;;7.60;99.90;;;;;;5093238;28;20364;-63
2023/05/27 02:58:25;;;;;;;11.98;5.65;;;7.50;99.90;;;;;;5092627;28;20786;-65
2023/05/27 03:00:52;;;;;;;12.57;5.32;;;7.50;99.90;;;;;;5092967;28;20375;-64
2023/05/27 03:03:18;;;;;;;13.13;6.10;;;7.50;99.90;;;;;;5075541;28;20051;-64
2023/05/27 03:05:45;;;;;;;13.82;5.25;;;7.50;99.90;;;;;;5082335;28;20040;-63
2023/05/27 03:08:11;;;;;;;16.17;5.50;;;7.50;99.90;;;;;;5065858;28;20056;-64
2023/05/27 03:10:37;;;;;;;11.73;5.32;;;7.40;99.90;;;;;;5086298;28;20044;-64
2023/05/27 03:13:03;;;;;;;14.10;5.38;;;7.40;99.90;;;;;;5092873;28;20048;-64
2023/05/27 03:15:31;;;;;;;18.50;5.50;;;7.40;99.90;;;;;;5092640;28;20398;-65
2023/05/27 03:17:57;;;;;;;8.43;4.63;;;7.40;99.90;;;;;;5091990;28;20136;-63
2023/05/27 03:20:24;;;;;;;13.10;5.35;;;7.30;99.90;;;;;;5092234;28;20052;-63
2023/05/27 03:22:50;;;;;;;11.65;5.15;;;7.30;99.90;;;;;;5092507;28;20419;-65
2023/05/27 03:25:16;;;;;;;12.93;5.40;;;7.30;99.90;;;;;;5075773;28;20052;-63
2023/05/27 03:27:43;;;;;;;13.25;5.93;;;7.20;99.90;;;;;;5091782;28;20040;-65
2023/05/27 03:30:09;;;;;;;11.13;5.25;;;7.20;99.90;;;;;;5091977;28;20341;-64
2023/05/27 03:32:36;;;;;;;12.25;5.63;;;7.30;99.90;;;;;;5092458;28;20406;-66
2023/05/27 03:35:02;;;;;;;15.60;6.25;;;7.20;99.90;;;;;;5092041;28;20048;-64
2023/05/27 03:37:29;;;;;;;14.45;6.22;;;7.30;99.90;;;;;;5091254;28;20062;-63
2023/05/27 03:39:55;;;;;;;15.10;5.20;;;7.20;99.90;;;;;;5092200;28;20383;-65
2023/05/27 03:42:21;;;;;;;12.60;5.35;;;7.30;99.90;;;;;;5091859;28;20052;-63
2023/05/27 03:44:47;;;;;;;12.10;5.25;;;7.20;99.90;;;;;;5091764;28;20384;-64
2023/05/27 03:47:17;;;;;;;21.00;5.57;;;7.20;99.90;;;;;;5091636;28;20047;-64
2023/05/27 03:49:43;;;;;;;13.57;5.15;;;7.30;99.90;;;;;;5091957;28;20055;-63
2023/05/27 03:52:11;;;;;;;10.98;5.53;;;7.30;99.90;;;;;;5091735;28;20040;-63
2023/05/27 03:54:37;;;;;;;15.45;5.90;;;7.30;99.90;;;;;;5091903;28;20125;-66
2023/05/27 03:57:03;;;;;;;11.98;5.15;;;7.40;99.90;;;;;;5091395;28;20048;-64
2023/05/27 03:59:30;;;;;;;11.85;5.30;;;7.40;99.90;;;;;;5091612;28;20066;-65
2023/05/27 04:01:56;;;;;;;9.85;5.18;;;7.40;99.90;;;;;;5091561;28;20063;-63
2023/05/27 04:04:22;;;;;;;15.38;5.60;;;7.50;99.90;;;;;;5091213;28;20289;-64
2023/05/27 04:06:49;;;;;;;13.43;5.88;;;7.60;99.90;;;;;;5091141;28;20058;-64
2023/05/27 04:09:15;;;;;;;14.02;5.43;;;7.60;99.90;;;;;;5091109;28;20044;-65
2023/05/27 04:11:41;;;;;;;15.00;5.47;;;7.70;99.90;;;;;;5091397;28;20040;-63
2023/05/27 04:14:08;;;;;;;9.77;5.28;;;7.70;99.90;;;;;;5091287;28;20341;-65
2023/05/27 04:16:35;;;;;;;13.48;6.20;;;7.70;99.90;;;;;;5091104;28;20050;-65
2023/05/27 04:19:01;;;;;;;17.52;6.95;;;7.70;99.90;;;;;;5091568;28;20048;-64
2023/05/27 04:21:27;;;;;;;16.00;6.68;;;7.80;99.90;;;;;;5091051;28;20070;-64
2023/05/27 04:23:54;;;;;;;16.90;6.50;;;7.80;99.90;;;;;;5091292;28;20052;-64
2023/05/27 04:26:20;;;;;;;13.20;5.60;;;7.90;99.90;;;;;;5074113;28;20456;-64
2023/05/27 04:28:48;;;;;;;14.57;5.85;;;7.90;99.90;;;;;;5090522;28;20048;-65
2023/05/27 04:31:15;;;;;;;13.20;5.35;;;8.00;99.90;;;;;;5091051;28;20483;-64
2023/05/27 04:33:44;;;;;;;13.30;6.65;;;8.00;99.90;;;;;;5091385;28;20131;-63
2023/05/27 04:36:11;;;;;;;16.10;6.45;;;7.90;99.90;;;;;;5073929;28;20040;-64
2023/05/27 04:38:38;;;;;;;14.52;6.07;;;8.00;99.90;;;;;;5090705;28;20064;-65
2023/05/27 04:41:04;;;;;;;10.85;5.88;;;8.10;99.90;;;;;;5091004;28;20504;-64
2023/05/27 04:43:30;;;;;;;13.82;6.18;;;8.10;99.90;;;;;;5091073;28;20040;-63
2023/05/27 04:45:59;;;;;;;13.63;6.47;;;8.10;99.90;;;;;;5090507;28;20056;-65
2023/05/27 04:48:26;;;;;;;15.98;8.50;;;8.20;99.90;;;;;;5090629;28;20055;-65
2023/05/27 04:50:56;;;;;;;16.40;7.50;;;8.20;99.90;;;;;;5091734;28;20048;-63
2023/05/27 04:53:23;;;;;;;11.82;7.03;;;8.30;99.90;;;;;;5090719;28;20415;-64
2023/05/27 04:55:50;;;;;;;14.20;6.40;;;8.30;99.90;;;;;;5090385;28;20396;-65
2023/05/27 04:58:17;;;;;;;16.05;6.78;;;8.50;99.90;;;;;;5090538;28;20418;-64
2023/05/27 05:00:49;;;;;;;14.00;5.78;;;8.60;99.90;;;;;;5090667;28;20048;-62
2023/05/27 05:03:20;;;;;;;15.15;5.72;;;8.70;99.90;;;;;;5091571;28;20050;-65
2023/05/27 05:05:51;;;;;;;15.88;5.30;;;9.00;99.90;;;;;;5090256;28;20495;-64
2023/05/27 05:08:19;;;;;;;11.68;6.20;;;9.70;99.90;;;;;;5090352;28;20079;-64
2023/05/27 05:10:48;;;;;;;11.98;4.93;;;10.60;99.90;;;;;;5090571;28;20048;-65
2023/05/27 05:13:16;;;;;;;12.52;5.30;;;11.30;99.90;;;;;;5090531;28;20093;-64
2023/05/27 05:15:45;;;;;;;14.05;5.78;;;11.80;99.90;;;;;;5092306;28;20496;-64
2023/05/27 05:18:11;;;;;;;14.13;4.97;;;12.60;99.90;;;;;;5094128;28;20444;-63
2023/05/27 05:20:38;;;;;;;12.10;5.15;;;13.30;99.90;;;;;;5077561;28;20067;-64
2023/05/27 05:23:04;;;;;;;10.70;4.82;;;13.40;99.90;;;;;;5094782;28;20090;-64
2023/05/27 05:25:35;;;;;;;15.63;5.53;;;13.30;99.90;;;;;;5094754;28;20051;-63
2023/05/27 05:28:01;;;;;;;12.63;5.05;;;13.30;99.90;;;;;;5093810;28;20460;-65
2023/05/27 05:30:27;;;;;;;11.43;4.82;;;13.30;99.90;;;;;;5094410;28;20113;-65
2023/05/27 05:32:53;;;;;;;15.52;5.65;;;13.20;99.90;;;;;;5094492;28;20060;-63
2023/05/27 05:35:20;;;;;;;15.65;5.57;;;13.30;99.90;;;;;;5077229;28;20472;-63
2023/05/27 05:37:46;;;;;;;11.23;5.00;;;13.50;99.90;;;;;;5093480;28;20105;-64
2023/05/27 05:40:13;;;;;;;17.98;6.28;;;13.90;99.90;;;;;;5094087;28;20059;-64
2023/05/27 05:42:39;;;;;;;12.45;4.95;;;14.40;99.90;;;;;;5077480;28;20052;-65
2023/05/27 05:45:06;;;;;;;13.60;5.95;;;14.90;99.90;;;;;;5094165;28;20055;-66
2023/05/27 05:47:33;;;;;;;9.57;5.45;;;15.50;99.90;;;;;;5093504;28;20044;-63
2023/05/27 05:49:59;;;;;;;12.00;5.45;;;15.90;99.90;;;;;;5077024;28;20051;-62
2023/05/27 05:52:25;;;;;;;13.75;4.90;;;15.90;99.90;;;;;;5094175;28;20433;-66
2023/05/27 05:54:51;;;;;;;17.42;5.63;;;16.50;99.90;;;;;;5094291;28;20508;-64
2023/05/27 05:57:18;;;;;;;13.00;5.63;;;16.70;99.90;;;;;;5093495;28;20052;-63
2023/05/27 05:59:44;;;;;;;10.65;4.63;;;17.00;99.90;;;;;;5095259;28;20052;-64
2023/05/27 06:02:10;;;;;;;14.38;4.90;;;17.30;99.90;;;;;;5094002;28;20048;-64
2023/05/27 06:04:37;;;;;;;12.95;5.68;;;17.50;99.90;;;;;;5077013;28;20487;-63
2023/05/27 06:07:03;;;;;;;12.48;4.93;;;17.60;99.90;;;;;;5093510;28;20044;-63
2023/05/27 06:09:29;;;;;;;13.43;4.80;;;17.50;99.90;;;;;;5093641;28;20383;-64
2023/05/27 06:11:56;;;;;;;13.50;4.88;;;17.40;99.90;;;;;;5093866;28;20498;-63
2023/05/27 06:14:22;;;;;;;12.52;5.28;;;17.40;99.90;;;;;;5093560;28;20048;-64
2023/05/27 06:16:49;;;;;;;11.18;5.03;;;17.60;99.90;;;;;;5093530;28;20054;-64
2023/05/27 06:19:16;;;;;;;12.35;5.13;;;17.50;99.90;;;;;;5092929;28;20048;-63
2023/05/27 06:21:42;;;;;;;13.73;4.40;;;17.40;99.90;;;;;;5094154;28;20395;-62
2023/05/27 06:24:09;;;;;;;10.70;4.78;;;17.30;99.90;;;;;;5093379;28;20281;-66
2023/05/27 06:26:35;;;;;;;13.65;5.10;;;17.30;99.90;;;;;;5075394;28;20055;-64
2023/05/27 06:29:01;;;;;;;13.30;4.50;;;17.40;99.90;;;;;;5092749;28;20460;-64
2023/05/27 06:31:27;;;;;;;15.55;4.70;;;17.60;99.90;;;;;;5093376;28;20044;-64
2023/05/27 06:33:54;;;;;;;11.82;4.50;;;17.60;99.90;;;;;;5093761;28;20047;-63
2023/05/27 06:36:20;;;;;;;18.35;4.82;;;17.50;99.90;;;;;;5092759;28;20047;-62
2023/05/27 06:38:47;;;;;;;14.05;4.93;;;17.50;99.90;;;;;;5093371;28;20452;-65
2023/05/27 06:41:14;;;;;;;16.10;4.70;;;17.20;99.90;;;;;;5093021;28;20466;-63
2023/05/27 06:43:41;;;;;;;12.40;4.47;;;17.40;99.90;;;;;;5093582;28;20353;-63
2023/05/27 06:46:08;;;;;;;16.17;4.90;;;17.40;99.90;;;;;;5093418;28;20056;-65
2023/05/27 06:48:34;;;;;;;14.55;4.65;;;16.60;99.90;;;;;;5076356;28;20361;-63
2023/05/27 06:51:00;;;;;;;14.35;4.45;;;16.20;99.90;;;;;;5093458;28;20048;-64
2023/05/27 06:53:27;;;;;;;15.43;4.25;;;16.30;99.90;;;;;;5093144;28;20059;-65
2023/05/27 06:55:53;;;;;;;15.77;4.30;;;15.90;99.90;;;;;;5093055;28;20051;-63
2023/05/27 06:58:19;;;;;;;14.43;4.25;;;15.40;99.90;;;;;;5085335;28;20040;-64
2023/05/27 07:00:46;;;;;;;14.05;4.55;;;15.50;99.90;;;;;;5081931;28;20044;-62
2023/05/27 07:03:12;;;;;;;12.63;4.20;;;15.40;99.90;;;;;;5082316;28;20452;-62
2023/05/27 07:05:38;;;;;;;12.02;4.18;;;15.40;99.90;;;;;;5078843;28;20376;-65
2023/05/27 07:08:06;;;;;;;14.10;4.28;;;15.40;99.90;;;;;;5082037;28;20367;-63
2023/05/27 07:10:32;;;;;;;12.82;3.88;;;15.50;99.90;;;;;;5062279;28;20448;-62
2023/05/27 07:12:58;;;;;;;13.65;3.97;;;15.60;99.90;;;;;;5082688;28;20062;-63
2023/05/27 07:15:26;;;;;;;13.02;3.80;;;15.80;99.90;;;;;;5081082;28;20055;-64
2023/05/27 07:17:53;;;;;;;14.32;3.90;;;15.80;99.90;;;;;;5082384;28;20044;-62
2023/05/27 07:20:19;;;;;;;14.48;3.95;;;16.00;99.90;;;;;;5080810;28;20044;-64
2023/05/27 07:22:45;;;;;;;12.48;4.05;;;16.00;99.90;;;;;;5082993;28;20109;-63
2023/05/27 07:25:12;;;;;;;13.30;4.43;;;16.30;99.90;;;;;;5080958;28;20456;-66
2023/05/27 07:27:38;;;;;;;15.25;4.32;;;16.60;99.90;;;;;;5091676;28;20059;-65
2023/05/27 07:30:05;;;;;;;14.93;4.10;;;16.80;99.90;;;;;;5092500;28;20507;-65
2023/05/27 07:32:32;;;;;;;13.88;4.30;;;16.90;99.90;;;;;;5075458;28;20055;-64
2023/05/27 07:34:58;;;;;;;11.95;3.55;;;17.00;99.90;;;;;;5092263;28;20060;-66
2023/05/27 07:37:26;;;;;;;15.00;4.50;;;17.20;99.90;;;;;;5074428;28;20052;-64
2023/05/27 07:39:52;;;;;;;15.15;4.13;;;17.00;99.90;;;;;;5091992;28;20048;-64
2023/05/27 07:42:18;;;;;;;13.57;4.60;;;17.10;99.90;;;;;;5091928;28;20056;-64
2023/05/27 07:44:44;;;;;;;11.48;3.97;;;17.00;99.90;;;;;;5093292;28;20059;-64
2023/05/27 07:47:11;;;;;;;14.32;4.20;;;16.90;99.90;;;;;;5083837;28;20048;-63
2023/05/27 07:49:37;;;;;;;14.23;5.85;;;16.80;99.90;;;;;;5091924;28;20044;-65
2023/05/27 07:52:03;;;;;;;13.75;4.38;;;16.80;99.90;;;;;;5091869;28;20045;-64
2023/05/27 07:54:30;;;;;;;14.23;4.00;;;16.90;99.90;;;;;;5091785;28;20394;-65
2023/05/27 07:56:57;;;;;;;13.80;3.95;;;16.90;99.90;;;;;;5090819;28;20044;-63
2023/05/27 07:59:24;;;;;;;12.95;4.55;;;17.00;99.90;;;;;;5092175;28;20059;-67
2023/05/27 08:01:50;;;;;;;12.50;4.40;;;16.90;99.90;;;;;;5091513;28;20071;-66
2023/05/27 08:04:19;;;;;;;12.30;3.80;;;17.00;99.90;;;;;;5091637;28;20040;-65
2023/05/27 08:06:46;;;;;;;11.43;4.40;;;17.20;99.90;;;;;;5091035;28;20425;-65
2023/05/27 08:09:12;;;;;;;11.35;4.43;;;17.20;99.90;;;;;;5091686;28;20040;-65
2023/05/27 08:11:38;;;;;;;12.45;4.13;;;17.30;99.90;;;;;;5091542;28;20063;-64
2023/05/27 08:14:05;;;;;;;14.73;4.28;;;17.30;99.90;;;;;;5075023;28;20040;-63
2023/05/27 08:16:31;;;;;;;14.30;3.95;;;17.40;99.90;;;;;;5076055;28;20078;-64
2023/05/27 08:18:57;;;;;;;10.75;4.05;;;17.30;99.90;;;;;;5090968;28;20173;-63
2023/05/27 08:21:23;;;;;;;13.15;4.43;;;17.40;99.90;;;;;;5091322;28;20091;-64
2023/05/27 08:23:50;;;;;;;16.95;4.55;;;17.50;99.90;;;;;;5091395;28;20468;-66
2023/05/27 08:26:17;;;;;;;16.48;4.95;;;17.70;99.90;;;;;;5091207;28;20055;-65
2023/05/27 08:28:46;;;;;;;11.38;4.30;;;17.80;99.90;;;;;;5073872;28;20113;-64
2023/05/27 08:31:12;;;;;;;10.85;4.22;;;17.60;99.90;;;;;;5091116;28;20048;-63
2023/05/27 08:33:38;;;;;;;11.55;4.47;;;17.50;99.90;;;;;;5092315;28;20188;-64
2023/05/27 08:36:05;;;;;;;14.70;4.60;;;17.60;99.90;;;;;;5090724;28;20047;-64
2023/05/27 08:38:32;;;;;;;11.38;4.68;;;17.80;99.90;;;;;;5070878;28;20053;-64
2023/05/27 08:40:58;;;;;;;11.98;4.22;;;17.70;99.90;;;;;;5070917;28;20548;-67
2023/05/27 08:43:25;;;;;;;15.13;4.20;;;17.70;99.90;;;;;;5070957;28;20053;-64
2023/05/27 08:45:51;;;;;;;15.13;4.85;;;17.70;99.90;;;;;;5053948;28;20161;-64
2023/05/27 08:48:18;;;;;;;17.90;4.97;;;17.60;99.90;;;;;;5072814;28;20047;-64
2023/05/27 08:50:44;;;;;;;13.13;4.40;;;17.60;99.90;;;;;;5090284;28;20067;-63
2023/05/27 08:53:11;;;;;;;13.35;4.32;;;17.60;99.90;;;;;;5074262;28;20044;-65
2023/05/27 08:55:39;;;;;;;14.07;4.43;;;17.60;99.90;;;;;;5090764;28;20090;-66
2023/05/27 08:58:07;;;;;;;14.90;4.47;;;17.70;99.90;;;;;;5073671;28;20516;-67
2023/05/27 09:00:34;;;;;;;12.93;4.75;;;18.00;99.90;;;;;;5090849;28;20055;-65
2023/05/27 09:03:00;;;;;;;14.95;3.95;;;17.90;99.90;;;;;;5090906;28;20056;-65
2023/05/27 09:05:27;;;;;;;15.63;5.28;;;18.20;99.90;;;;;;5090600;28;20055;-64
2023/05/27 09:07:55;;;;;;;18.23;5.05;;;18.10;99.90;;;;;;5090204;28;20052;-64
2023/05/27 09:10:21;;;;;;;13.98;5.28;;;18.20;99.90;;;;;;5074155;28;20044;-65
2023/05/27 09:12:50;;;;;;;14.85;5.60;;;18.10;99.90;;;;;;5091005;28;20045;-65
2023/05/27 09:15:16;;;;;;;12.50;4.90;;;18.20;99.90;;;;;;5090498;28;20052;-63
2023/05/27 09:17:44;;;;;;;11.40;4.57;;;18.30;99.90;;;;;;5090112;28;20063;-63
2023/05/27 09:20:12;;;;;;;13.63;4.78;;;18.30;99.90;;;;;;5090334;28;20055;-64
2023/05/27 09:22:39;;;;;;;14.57;5.22;;;18.30;99.90;;;;;;5090747;28;20048;-65
2023/05/27 09:25:06;;;;;;;13.60;5.35;;;18.10;99.90;;;;;;5090530;28;20044;-67
2023/05/27 09:27:33;;;;;;;14.32;5.50;;;18.20;99.90;;;;;;5073273;28;20156;-64
2023/05/27 09:30:07;;;;;;;12.48;4.78;;;18.20;99.90;;;;;;5090358;28;20044;-65
2023/05/27 09:32:33;;;;;;;15.10;5.22;;;18.10;99.90;;;;;;5090583;28;20094;-63
2023/05/27 09:35:01;;;;;;;15.98;5.85;;;18.00;99.90;;;;;;5090421;28;20044;-66
2023/05/27 09:37:37;;;;;;;14.48;5.35;;;18.10;99.90;;;;;;5089731;28;20075;-66
2023/05/27 09:40:09;;;;;;;14.50;4.80;;;18.10;99.90;;;;;;5090804;28;20069;-64
2023/05/27 09:42:47;;;;;;;12.32;5.45;;;18.00;99.90;;;;;;5090540;28;20052;-66
2023/05/27 09:45:15;;;;;;;14.55;5.25;;;18.20;99.90;;;;;;5090435;28;20110;-64
2023/05/27 09:47:47;;;;;;;12.38;4.53;;;18.40;99.90;;;;;;5089696;28;20044;-65
2023/05/27 09:50:16;;;;;;;;;;;18.40;99.90;;;;;;5090991;28;20052;-64
2023/05/27 09:52:47;;;;;;;15.38;4.60;;;18.50;99.90;;;;;;5090263;28;19920;-64
2023/05/27 09:55:14;;;;;;;12.90;4.82;;;18.60;99.90;;;;;;5090428;28;20043;-64
2023/05/27 09:57:41;;;;;;;12.90;4.88;;;18.50;99.90;;;;;;5089457;28;20051;-64
2023/05/27 10:00:12;;;;;;;13.10;5.10;;;18.70;99.90;;;;;;5073557;28;20056;-65
2023/05/27 10:02:40;;;;;;;;;;;18.80;99.90;;;;;;5093788;28;20193;-65
2023/05/27 10:05:08;;;;;;;15.13;5.93;;;18.80;99.90;;;;;;5093488;28;20275;-65
2023/05/27 10:07:38;;;;;;;13.98;4.97;;;19.00;99.90;;;;;;5093358;28;20054;-65
2023/05/27 10:10:12;;;;;;;12.70;5.40;;;19.00;99.90;;;;;;5077405;28;20047;-64
2023/05/27 10:12:39;;;;;;;11.82;4.63;;;19.30;99.90;;;;;;5094204;28;20063;-63
2023/05/27 10:15:07;;;;;;;15.60;5.45;;;19.20;99.90;;;;;;5094006;28;20101;-68
2023/05/27 10:17:47;;;;;;;12.43;5.50;;;19.10;99.90;;;;;;5073072;28;20150;-63
2023/05/27 10:20:25;;;;;;;11.88;5.68;;;19.20;99.90;;;;;;5073718;28;20053;-63
2023/05/27 10:22:52;;;;;;;13.35;4.57;;;19.30;99.90;;;;;;5079790;28;20052;-66
2023/05/27 10:25:18;;;;;;;13.57;5.07;;;19.20;99.90;;;;;;5084071;28;20054;-63
2023/05/27 10:27:46;;;;;;;15.55;5.20;;;19.20;99.90;;;;;;5080888;28;20064;-64
2023/05/27 10:30:14;;;;;;;15.63;6.13;;;19.00;99.90;;;;;;5082306;28;20057;-65
2023/05/27 10:32:50;;;;;;;14.65;5.68;;;19.00;99.90;;;;;;5081907;28;20044;-67
2023/05/27 10:35:17;;;;;;;12.52;5.13;;;19.10;99.90;;;;;;5080815;28;20040;-63
2023/05/27 10:37:43;;;;;;;13.98;5.40;;;19.30;99.90;;;;;;5080159;28;20045;-64
2023/05/27 10:40:11;;;;;;;12.60;5.05;;;19.70;99.90;;;;;;5083712;28;20658;-64
2023/05/27 10:42:37;;;;;;;12.88;5.25;;;19.60;99.90;;;;;;5064703;28;20467;-65
2023/05/27 10:45:10;;;;;;;15.57;5.35;;;19.60;99.50;;;;;;5081749;28;20048;-65
2023/05/27 10:47:37;;;;;;;12.02;5.20;;;19.50;98.30;;;;;;5084733;28;20035;-63
2023/05/27 10:50:12;;;;;;;18.20;5.85;;;19.70;98.80;;;;;;5094073;28;20044;-65
2023/05/27 10:52:40;;;;;;;15.23;5.72;;;19.70;99.00;;;;;;5059474;28;20051;-65
2023/05/27 10:55:06;;;;;;;11.80;5.47;;;19.60;99.30;;;;;;5093880;28;20101;-64
2023/05/27 10:57:33;;;;;;;15.02;5.80;;;19.60;99.70;;;;;;5092715;28;20348;-62
2023/05/27 11:00:09;;;;;;;12.88;5.07;;;19.80;99.90;;;;;;5093779;28;20060;-62
2023/05/27 11:02:38;;;;;;;12.07;4.60;;;19.90;99.70;;;;;;5093809;28;20044;-63
2023/05/27 11:05:13;;;;;;;13.82;5.00;;;19.90;99.50;;;;;;5094399;28;20047;-64
2023/05/27 11:07:40;;;;;;;14.10;5.95;;;20.10;99.40;;;;;;5093731;28;20056;-62
2023/05/27 11:10:10;;;;;;;14.15;5.65;;;20.10;99.10;;;;;;5093350;28;20052;-64
2023/05/27 11:12:36;;;;;;;11.85;4.90;;;19.90;98.70;;;;;;5092307;28;20048;-64
2023/05/27 11:15:03;;;;;;;12.77;5.93;;;20.10;99.00;;;;;;5094314;28;20101;-63
2023/05/27 11:17:29;;;;;;;14.40;4.53;;;20.00;98.70;;;;;;5092470;28;20052;-62
2023/05/27 11:19:56;;;;;;;16.98;5.88;;;20.20;99.00;;;;;;5092851;28;20392;-64
2023/05/27 11:22:22;;;;;;;15.63;5.32;;;20.30;99.10;;;;;;5093247;28;20048;-63
2023/05/27 11:24:56;;;;;;;14.02;5.97;;;20.20;99.10;;;;;;5089076;28;20052;-62
2023/05/27 11:27:38;;;;;;;14.18;5.72;;;20.20;98.90;;;;;;5082061;28;20079;-64
2023/05/27 11:30:10;;;;;;;15.55;6.07;;;20.20;98.90;;;;;;5086636;28;20388;-64
2023/05/27 11:32:36;;;;;;;12.98;4.88;;;20.40;99.10;;;;;;5081477;28;20041;-63
2023/05/27 11:35:03;;;;;;;12.32;5.10;;;20.50;98.70;;;;;;5073559;28;20101;-64
2023/05/27 11:37:34;;;;;;;13.57;5.72;;;20.60;98.60;;;;;;5083004;28;20059;-65
2023/05/27 11:40:01;;;;;;;10.77;4.40;;;20.60;98.50;;;;;;5093071;28;20128;-65
2023/05/27 11:42:29;;;;;;;13.75;5.43;;;20.80;98.60;;;;;;5093799;28;20059;-63
2023/05/27 11:44:56;;;;;;;15.02;5.20;;;20.80;98.10;;;;;;5093728;28;20052;-63
2023/05/27 11:47:23;;;;;;;13.80;5.32;;;20.90;97.90;;;;;;5075228;28;20044;-64
2023/05/27 11:49:49;;;;;;;15.00;5.90;;;20.60;97.50;;;;;;5093409;28;20568;-63
2023/05/27 11:52:16;;;;;;;13.73;5.05;;;20.60;97.80;;;;;;5092683;28;20434;-62
2023/05/27 11:54:42;;;;;;;17.45;6.07;;;20.70;97.90;;;;;;5092309;28;20047;-65
2023/05/27 11:57:10;;;;;;;17.10;5.75;;;20.70;97.70;;;;;;5091832;28;20143;-63
2023/05/27 11:59:36;;;;;;;17.20;5.53;;;20.80;97.90;;;;;;5088178;28;20048;-64
2023/05/27 12:02:06;;;;;;;15.13;5.65;;;20.80;98.10;;;;;;5090722;28;20051;-64
2023/05/27 12:04:33;;;;;;;16.55;5.80;;;20.80;98.00;;;;;;5083867;28;20041;-65
2023/05/27 12:07:02;;;;;;;14.43;5.97;;;20.90;97.90;;;;;;5079547;28;20389;-62
2023/05/27 12:09:29;;;;;;;12.02;5.30;;;21.00;98.00;;;;;;5078355;28;20045;-63
2023/05/27 12:11:55;;;;;;;15.35;5.10;;;21.10;97.70;;;;;;5081440;28;20048;-65
2023/05/27 12:14:22;;;;;;;14.40;5.80;;;21.10;97.20;;;;;;5093643;28;20438;-64
2023/05/27 12:16:49;;;;;;;14.18;5.72;;;21.00;97.20;;;;;;5092529;28;20048;-64
2023/05/27 12:19:15;;;;;;;16.27;5.55;;;21.00;97.10;;;;;;5094398;28;20078;-64
2023/05/27 12:21:42;;;;;;;15.32;5.50;;;20.90;97.10;;;;;;5086996;28;20131;-65
2023/05/27 12:24:08;;;;;;;12.30;5.55;;;20.90;97.40;;;;;;5092146;28;20059;-63
2023/05/27 12:26:34;;;;;;;14.65;5.18;;;21.00;97.50;;;;;;5092110;28;20051;-64
2023/05/27 12:29:01;;;;;;;13.18;5.57;;;21.00;97.20;;;;;;5072181;28;20051;-63
2023/05/27 12:31:27;;;;;;;13.98;5.10;;;21.00;96.90;;;;;;5074375;28;20063;-63
2023/05/27 12:33:53;;;;;;;13.52;5.50;;;21.10;97.10;;;;;;5075909;28;20048;-63
2023/05/27 12:36:19;;;;;;;14.13;5.30;;;21.10;97.00;;;;;;5064421;28;20058;-63
2023/05/27 12:38:45;;;;;;;18.20;5.60;;;21.30;97.20;;;;;;5092330;28;20455;-64
2023/05/27 12:41:12;;;;;;;12.50;5.05;;;21.30;96.80;;;;;;5092708;28;20460;-64